Terminal Aerodrome Forecast
Issued by NWS

Home | Current Version | Previous Version | Text Only | Print | Product List | Glossary On
Versions: 1 2 3 4 5 6 7 8 9 10 11 12 13 14 15 16 17 18 19 20 21 22 23 24 25 26 27 28 29 30 31 32 33 34 35 36 37 38 39 40 41 42 43 44 45 46 47 48 49 50
000
FTUS43 KMKX 031130 AAA
TAFENW
TAF AMD
KENW 031130Z 0312/0412 16010KT 1SM -SN OVC010
      TEMPO 0312/0314 1/2SM SN OVC007
     FM031400 19014KT 2SM -SNPL OVC008
     FM031700 20013G21KT 4SM -FZRAPL OVC008
     FM031900 23014G21KT P6SM OVC008
     FM032200 25013G20KT P6SM OVC015
     FM040000 27012KT P6SM OVC035
     FM040500 29012KT P6SM SCT035
     FM040800 30013G21KT P6SM SCT150=

USA.gov is the U.S. government's official web portal to all federal, state and local government web resources and services.